Time;durP1;ratioP1;P1;durP2;ratioP2;P2;SDS_P1;SDS_P2;PMS_P1;PMS_P2;Temp;Humidity;BMP_temperature;BMP_pressure;BME280_temperature;BME280_humidity;BME280_pressure;Samples;Min_cycle;Max_cycle;Signal;HPM_P1;HPM_P2
2023/09/27 00:00:08;;;;;;;5.22;3.47;;;;;;;18.39;40.26;101567.16;4985172;28;20515;-74
2023/09/27 00:02:40;;;;;;;4.65;3.47;;;;;;;18.33;40.59;101573.38;4984556;28;20131;-74
2023/09/27 00:05:10;;;;;;;4.60;3.45;;;;;;;18.31;40.89;101580.13;4966808;28;21168;-74
2023/09/27 00:07:40;;;;;;;4.40;3.08;;;;;;;18.27;40.75;101579.63;4985795;28;20065;-73
2023/09/27 00:10:11;;;;;;;4.80;3.38;;;;;;;18.25;41.11;101581.66;4985095;28;20050;-72
2023/09/27 00:12:40;;;;;;;6.68;3.65;;;;;;;18.21;40.62;101574.75;4984470;28;20117;-74
2023/09/27 00:15:11;;;;;;;5.03;3.47;;;;;;;18.18;40.91;101575.06;4965784;28;20141;-74
2023/09/27 00:17:40;;;;;;;4.40;3.15;;;;;;;18.14;41.16;101571.75;4966309;28;20530;-73
2023/09/27 00:20:13;;;;;;;5.97;4.05;;;;;;;18.12;41.00;101571.06;4984140;28;20425;-73
2023/09/27 00:22:41;;;;;;;4.78;3.85;;;;;;;18.07;41.21;101572.59;4966301;28;20104;-74
2023/09/27 00:25:11;;;;;;;4.60;3.40;;;;;;;18.06;41.27;101568.94;4966239;28;20097;-73
2023/09/27 00:27:39;;;;;;;5.18;3.92;;;;;;;18.01;40.66;101565.81;4965482;28;20050;-73
2023/09/27 00:30:08;;;;;;;4.60;3.55;;;;;;;17.99;41.30;101567.00;4966374;28;20485;-72
2023/09/27 00:32:36;;;;;;;5.57;4.30;;;;;;;17.94;41.27;101583.25;4984541;28;20464;-73
2023/09/27 00:35:06;;;;;;;4.97;3.58;;;;;;;17.92;41.69;101586.19;4981744;28;20145;-72
2023/09/27 00:37:36;;;;;;;5.38;4.05;;;;;;;17.88;41.75;101586.69;4985738;28;20050;-73
2023/09/27 00:40:09;;;;;;;4.72;3.67;;;;;;;17.87;41.45;101588.59;4966726;28;20050;-72
2023/09/27 00:42:39;;;;;;;4.50;3.42;;;;;;;17.88;41.48;101595.88;4969130;28;20258;-74
2023/09/27 00:45:08;;;;;;;4.57;3.42;;;;;;;17.86;41.95;101600.72;4984280;28;20517;-73
2023/09/27 00:47:37;;;;;;;5.28;3.42;;;;;;;17.85;41.85;101612.81;4981991;28;20560;-73
2023/09/27 00:50:07;;;;;;;4.90;3.50;;;;;;;17.87;41.97;101613.53;4986549;28;20663;-72
2023/09/27 00:52:36;;;;;;;6.65;3.72;;;;;;;17.87;41.75;101615.44;4983705;28;20646;-75
2023/09/27 00:55:05;;;;;;;4.47;3.35;;;;;;;17.89;41.52;101613.38;4984244;28;20116;-73
2023/09/27 00:57:34;;;;;;;6.28;3.83;;;;;;;17.88;41.39;101612.50;4985244;28;20055;-73
2023/09/27 01:00:10;;;;;;;5.20;3.58;;;;;;;17.91;41.95;101612.16;4984176;28;20516;-73
2023/09/27 01:02:39;;;;;;;4.35;3.50;;;;;;;17.90;41.87;101613.19;4985550;28;20225;-73
2023/09/27 01:05:09;;;;;;;4.72;3.55;;;;;;;17.90;41.53;101610.41;4986950;28;20750;-74
2023/09/27 01:07:39;;;;;;;5.10;3.63;;;;;;;17.89;41.45;101614.25;4966846;28;20244;-73
2023/09/27 01:10:10;;;;;;;4.43;3.50;;;;;;;17.90;41.94;101624.25;4965981;28;20402;-74
2023/09/27 01:12:38;;;;;;;5.70;3.55;;;;;;;17.88;41.41;101634.66;4965902;28;20042;-73
2023/09/27 01:15:09;;;;;;;4.82;3.35;;;;;;;17.91;41.60;101627.91;4967293;28;20050;-72
2023/09/27 01:17:52;;;;;;;4.93;3.33;;;;;;;17.87;41.77;101632.91;4965267;28;20050;-73
2023/09/27 01:20:20;;;;;;;4.70;3.60;;;;;;;17.86;41.50;101633.06;4984473;28;20577;-73
2023/09/27 01:22:55;;;;;;;4.30;3.50;;;;;;;17.89;41.50;101643.84;4965489;28;20131;-72
2023/09/27 01:25:26;;;;;;;4.40;3.45;;;;;;;17.88;41.36;101645.72;4985184;28;20078;-73
2023/09/27 01:27:55;;;;;;;4.40;3.45;;;;;;;17.85;41.08;101634.09;4983590;28;20726;-72
2023/09/27 01:30:24;;;;;;;4.63;3.33;;;;;;;17.85;41.72;101614.72;4984483;28;20181;-73
2023/09/27 01:32:52;;;;;;;4.30;3.55;;;;;;;17.83;41.22;101611.22;4984597;28;20082;-73
2023/09/27 01:35:20;;;;;;;5.57;4.03;;;;;;;17.81;41.42;101608.66;4965508;28;20068;-73
2023/09/27 01:37:49;;;;;;;5.55;3.95;;;;;;;17.77;41.20;101627.47;4984170;28;20053;-74
2023/09/27 01:40:30;;;;;;;4.78;3.65;;;;;;;17.77;41.22;101637.69;4986063;28;20054;-73
2023/09/27 01:42:58;;;;;;;6.15;3.95;;;;;;;17.71;41.52;101641.06;4988089;28;20140;-73
2023/09/27 01:45:27;;;;;;;4.60;3.45;;;;;;;17.70;41.55;101645.75;4968950;28;20066;-74
2023/09/27 01:47:55;;;;;;;4.82;3.80;;;;;;;17.68;41.44;101644.16;4985261;28;20062;-73
2023/09/27 01:50:24;;;;;;;5.63;3.78;;;;;;;17.66;41.64;101647.06;4988215;28;20050;-74
2023/09/27 01:52:53;;;;;;;5.38;3.83;;;;;;;17.67;41.56;101642.41;4985654;28;20054;-73
2023/09/27 01:55:23;;;;;;;5.25;4.15;;;;;;;17.66;41.74;101641.53;4988758;28;20161;-73
2023/09/27 01:57:53;;;;;;;5.88;4.20;;;;;;;17.62;41.34;101631.84;4967517;28;20050;-73
2023/09/27 02:00:21;;;;;;;5.18;3.95;;;;;;;17.59;41.94;101631.28;4983916;28;20056;-74
2023/09/27 02:02:51;;;;;;;6.70;3.70;;;;;;;17.59;41.41;101631.28;4968641;28;20414;-74
2023/09/27 02:05:19;;;;;;;6.43;4.22;;;;;;;17.55;41.71;101632.66;4970518;28;20068;-74
2023/09/27 02:07:47;;;;;;;4.63;3.55;;;;;;;17.53;41.52;101623.63;4989254;28;20050;-74
2023/09/27 02:10:15;;;;;;;4.50;3.63;;;;;;;17.52;41.94;101628.28;4971701;28;20433;-74
2023/09/27 02:12:45;;;;;;;6.45;3.70;;;;;;;17.53;41.47;101629.16;4984420;28;20570;-74
2023/09/27 02:15:16;;;;;;;4.40;3.22;;;;;;;17.51;41.67;101626.56;4987655;28;20068;-73
2023/09/27 02:17:44;;;;;;;4.50;3.47;;;;;;;17.50;41.61;101626.72;4993271;28;20053;-73
2023/09/27 02:20:14;;;;;;;4.75;3.75;;;;;;;17.51;42.10;101637.63;4987584;28;20537;-74
2023/09/27 02:22:42;;;;;;;5.78;4.10;;;;;;;17.48;41.69;101646.28;4984221;28;20058;-74
2023/09/27 02:25:13;;;;;;;5.10;4.03;;;;;;;17.49;41.75;101641.56;4986800;28;20050;-75
2023/09/27 02:27:42;;;;;;;4.65;3.58;;;;;;;17.47;41.57;101641.75;4992878;28;20058;-75
2023/09/27 02:30:12;;;;;;;4.80;3.75;;;;;;;17.47;41.60;101639.00;4969480;28;20456;-74
2023/09/27 02:32:43;;;;;;;5.60;3.65;;;;;;;17.44;41.81;101641.19;4968661;28;20043;-74
2023/09/27 02:35:13;;;;;;;5.00;3.70;;;;;;;17.42;41.95;101635.81;4969150;28;20383;-73
2023/09/27 02:37:43;;;;;;;4.20;3.40;;;;;;;17.42;41.87;101623.88;4968175;28;20521;-74
2023/09/27 02:40:12;;;;;;;4.45;3.67;;;;;;;17.37;42.13;101614.19;4985477;28;20081;-74
2023/09/27 02:42:42;;;;;;;4.78;3.67;;;;;;;17.34;41.92;101606.19;4968287;28;20200;-74
2023/09/27 02:45:12;;;;;;;5.22;3.80;;;;;;;17.33;41.69;101600.81;4985944;28;20049;-74
2023/09/27 02:47:43;;;;;;;5.00;3.70;;;;;;;17.27;41.83;101588.50;4968379;28;20257;-74
2023/09/27 02:50:13;;;;;;;4.90;3.90;;;;;;;17.23;41.60;101584.31;4967808;28;20466;-72
2023/09/27 02:52:41;;;;;;;5.28;3.60;;;;;;;17.17;41.61;101568.34;4967885;28;20054;-74
2023/09/27 02:55:10;;;;;;;4.60;3.70;;;;;;;17.14;42.25;101577.00;4986638;28;20498;-73
2023/09/27 02:57:39;;;;;;;4.97;3.42;;;;;;;17.06;41.79;101585.22;4984194;28;20041;-74
2023/09/27 03:00:09;;;;;;;6.25;3.78;;;;;;;17.04;42.23;101590.03;4969284;28;20121;-74
2023/09/27 03:02:39;;;;;;;5.35;3.45;;;;;;;17.01;42.49;101591.22;4968183;28;20054;-74
2023/09/27 03:05:08;;;;;;;4.35;3.35;;;;;;;16.98;42.13;101596.22;4987792;28;20082;-73
2023/09/27 03:07:38;;;;;;;5.60;3.08;;;;;;;16.96;42.62;101599.09;4968725;28;20492;-73
2023/09/27 03:10:10;;;;;;;5.20;3.80;;;;;;;16.96;42.80;101600.97;4968934;28;20054;-74
2023/09/27 03:12:40;;;;;;;4.95;3.30;;;;;;;16.93;42.47;101593.88;4982812;28;20054;-74
2023/09/27 03:15:11;;;;;;;4.65;3.60;;;;;;;16.95;42.32;101591.81;4985114;28;20046;-74
2023/09/27 03:17:44;;;;;;;4.07;3.22;;;;;;;16.96;42.68;101585.25;4982720;28;20058;-73
2023/09/27 03:20:15;;;;;;;4.55;3.35;;;;;;;16.94;42.32;101581.78;4967934;28;20137;-74
2023/09/27 03:22:46;;;;;;;5.47;3.88;;;;;;;16.93;42.88;101587.47;4969370;28;20050;-74
2023/09/27 03:25:16;;;;;;;6.15;3.65;;;;;;;16.93;42.31;101588.34;4968258;28;20394;-75
2023/09/27 03:27:45;;;;;;;6.03;3.90;;;;;;;16.94;42.78;101586.44;4968199;28;20704;-73
2023/09/27 03:30:13;;;;;;;5.43;3.55;;;;;;;16.94;42.78;101581.78;4983991;28;20061;-74
2023/09/27 03:32:43;;;;;;;5.57;3.92;;;;;;;16.96;42.81;101578.88;4986045;28;20067;-74
2023/09/27 03:35:11;;;;;;;4.90;3.75;;;;;;;16.94;42.62;101569.84;4967981;28;20054;-72
2023/09/27 03:37:39;;;;;;;5.75;4.10;;;;;;;16.92;42.19;101566.38;4985313;28;20752;-74
2023/09/27 03:40:13;;;;;;;5.40;3.78;;;;;;;16.91;42.21;101570.16;4968081;28;20061;-74
2023/09/27 03:42:46;;;;;;;4.65;3.53;;;;;;;16.89;42.84;101575.88;4985131;28;20057;-74
2023/09/27 03:45:15;;;;;;;5.30;3.80;;;;;;;16.84;42.67;101572.69;4986802;28;20191;-74
2023/09/27 03:47:48;;;;;;;6.30;3.58;;;;;;;16.82;42.98;101573.91;4990420;28;20409;-74
2023/09/27 03:50:18;;;;;;;5.10;3.75;;;;;;;16.78;42.90;101576.09;4984674;28;20054;-73
2023/09/27 03:52:46;;;;;;;5.45;3.45;;;;;;;16.77;42.51;101576.25;4984132;28;20054;-74
2023/09/27 03:55:14;;;;;;;4.85;3.58;;;;;;;16.76;42.53;101591.09;4983262;28;20136;-75
2023/09/27 03:57:42;;;;;;;4.65;3.55;;;;;;;16.75;43.07;101589.34;4986785;28;20054;-74
2023/09/27 04:00:14;;;;;;;4.50;3.15;;;;;;;16.75;42.47;101590.22;4986968;28;20096;-74
2023/09/27 04:02:44;;;;;;;5.32;3.40;;;;;;;16.73;42.92;101577.59;4993236;28;20054;-74
2023/09/27 04:05:15;;;;;;;4.65;3.63;;;;;;;16.76;42.57;101577.25;4968586;28;20149;-74
2023/09/27 04:07:43;;;;;;;6.13;3.65;;;;;;;16.73;42.89;101577.59;4965876;28;20074;-73
2023/09/27 04:10:11;;;;;;;4.88;3.53;;;;;;;16.73;43.01;101580.38;4966671;28;20060;-74
2023/09/27 04:12:39;;;;;;;6.13;3.78;;;;;;;16.71;42.96;101590.69;4985876;28;20061;-74
2023/09/27 04:15:09;;;;;;;4.80;3.38;;;;;;;16.71;42.80;101597.09;4984855;28;20157;-75
2023/09/27 04:17:38;;;;;;;4.68;3.42;;;;;;;16.69;42.80;101601.91;4984521;28;20066;-75
2023/09/27 04:20:13;;;;;;;5.70;3.72;;;;;;;16.71;42.56;101604.53;4967725;28;20051;-73
2023/09/27 04:22:45;;;;;;;5.15;3.50;;;;;;;16.70;42.47;101611.94;4984068;28;20768;-73
2023/09/27 04:25:14;;;;;;;5.78;3.90;;;;;;;16.68;43.05;101600.16;4984138;28;20061;-73
2023/09/27 04:27:43;;;;;;;5.65;3.42;;;;;;;16.71;42.71;101601.75;4984795;28;20114;-74
2023/09/27 04:30:13;;;;;;;5.05;3.35;;;;;;;16.70;42.99;101595.34;4987783;28;20667;-74
2023/09/27 04:32:43;;;;;;;4.78;3.70;;;;;;;16.69;42.87;101584.44;4986199;28;20104;-73
2023/09/27 04:35:12;;;;;;;4.95;3.85;;;;;;;16.67;42.54;101583.72;4985836;28;20063;-73
2023/09/27 04:37:41;;;;;;;4.60;3.72;;;;;;;16.65;42.67;101589.44;4985941;28;20624;-73
2023/09/27 04:40:11;;;;;;;5.68;3.65;;;;;;;16.66;42.81;101598.59;4967368;28;20085;-73
2023/09/27 04:42:40;;;;;;;5.30;3.65;;;;;;;16.60;42.42;101595.44;4986031;28;20046;-73
2023/09/27 04:45:09;;;;;;;5.38;3.50;;;;;;;16.62;42.72;101603.56;4982196;28;20056;-73
2023/09/27 04:47:37;;;;;;;5.70;3.55;;;;;;;16.59;42.58;101613.03;4983797;28;20073;-74
2023/09/27 04:50:09;;;;;;;5.00;3.70;;;;;;;16.59;42.64;101620.44;4986586;28;20120;-74
2023/09/27 04:52:38;;;;;;;5.30;3.33;;;;;;;16.56;42.67;101612.47;4984624;28;20299;-73
2023/09/27 04:55:08;;;;;;;5.45;3.63;;;;;;;16.59;42.41;101612.16;4982612;28;20037;-74
2023/09/27 04:57:37;;;;;;;6.13;3.72;;;;;;;16.58;42.61;101600.22;4983449;28;20050;-74
2023/09/27 05:00:13;;;;;;;4.53;3.58;;;;;;;16.56;42.32;101593.13;4983663;28;20045;-74
2023/09/27 05:02:42;;;;;;;4.70;3.63;;;;;;;16.53;42.67;101605.38;4966771;28;20121;-73
2023/09/27 05:05:10;;;;;;;5.10;3.78;;;;;;;16.52;42.31;101605.50;4985274;28;20469;-74
2023/09/27 05:07:39;;;;;;;5.75;3.60;;;;;;;16.48;42.52;101610.50;4985997;28;20060;-74
2023/09/27 05:10:09;;;;;;;5.13;3.38;;;;;;;16.45;42.48;101605.28;4982383;28;20107;-73
2023/09/27 05:12:39;;;;;;;5.10;3.60;;;;;;;16.45;42.50;101596.97;4964573;28;20049;-73
2023/09/27 05:15:09;;;;;;;5.38;4.05;;;;;;;16.40;42.77;101599.34;4989048;28;20089;-74
2023/09/27 05:17:37;;;;;;;5.78;3.92;;;;;;;16.37;42.51;101598.78;4969838;28;20052;-74
2023/09/27 05:20:10;;;;;;;5.60;4.00;;;;;;;16.35;43.04;101598.94;4987402;28;20062;-74
2023/09/27 05:22:39;;;;;;;5.60;4.18;;;;;;;16.32;42.93;101610.31;4970416;28;20046;-73
2023/09/27 05:25:08;;;;;;;4.88;3.72;;;;;;;16.31;42.80;101615.97;4969961;28;20046;-74
2023/09/27 05:27:38;;;;;;;4.72;3.88;;;;;;;16.28;42.77;101614.38;4987200;28;20053;-74
2023/09/27 05:30:08;;;;;;;6.30;3.55;;;;;;;16.27;42.90;101612.63;4970380;28;20104;-74
2023/09/27 05:32:36;;;;;;;4.63;3.30;;;;;;;16.24;42.78;101619.38;4987172;28;20056;-74
2023/09/27 05:35:05;;;;;;;6.25;3.83;;;;;;;16.25;42.78;101617.44;4986943;28;20873;-73
2023/09/27 05:37:35;;;;;;;4.65;3.67;;;;;;;16.22;42.80;101624.16;4989421;28;20514;-74
2023/09/27 05:40:09;;;;;;;5.00;3.70;;;;;;;16.24;42.82;101641.47;4987962;28;20513;-74
2023/09/27 05:42:39;;;;;;;5.00;3.60;;;;;;;16.25;43.17;101640.41;4987559;28;20049;-73
2023/09/27 05:45:10;;;;;;;6.43;3.60;;;;;;;16.25;42.67;101628.50;4987821;28;20431;-74
2023/09/27 05:47:39;;;;;;;5.10;3.83;;;;;;;16.25;43.01;101623.84;4969217;28;20157;-75
2023/09/27 05:50:09;;;;;;;5.38;3.90;;;;;;;16.26;42.83;101624.69;4970582;28;20465;-74
2023/09/27 05:52:37;;;;;;;5.03;3.88;;;;;;;16.25;43.02;101606.38;4986037;28;20069;-73
2023/09/27 05:55:06;;;;;;;6.05;4.10;;;;;;;16.25;42.71;101603.63;4985536;28;20097;-74
2023/09/27 05:57:34;;;;;;;5.35;4.07;;;;;;;16.23;42.77;101603.81;4986036;28;20056;-74
2023/09/27 06:00:14;;;;;;;5.70;4.05;;;;;;;16.24;43.04;101599.16;4988596;28;20057;-73
2023/09/27 06:02:43;;;;;;;5.82;3.97;;;;;;;16.18;43.18;101614.44;4987426;28;20050;-73
2023/09/27 06:05:12;;;;;;;6.10;4.15;;;;;;;16.18;43.05;101617.19;4991130;28;20084;-74
2023/09/27 06:07:40;;;;;;;5.68;4.30;;;;;;;16.19;43.36;101640.16;4990528;28;20054;-73
2023/09/27 06:10:09;;;;;;;6.28;4.18;;;;;;;16.19;43.39;101651.19;4988335;28;20046;-73
2023/09/27 06:12:37;;;;;;;4.85;4.00;;;;;;;16.19;43.45;101640.16;4972407;28;20133;-73
2023/09/27 06:15:09;;;;;;;6.45;4.25;;;;;;;16.23;43.81;101642.47;4989583;28;20060;-73
2023/09/27 06:17:37;;;;;;;6.75;4.03;;;;;;;16.20;44.13;101641.91;4984321;28;20050;-74
2023/09/27 06:20:08;;;;;;;6.10;4.30;;;;;;;16.25;43.84;101642.28;4988573;28;20108;-73
2023/09/27 06:22:36;;;;;;;7.03;4.20;;;;;;;16.25;44.08;101637.66;4985863;28;20065;-73
2023/09/27 06:25:06;;;;;;;5.35;4.15;;;;;;;16.29;43.95;101645.63;4969523;28;20073;-74
2023/09/27 06:27:34;;;;;;;7.03;4.20;;;;;;;16.30;44.20;101637.19;4984083;28;20038;-74
2023/09/27 06:30:03;;;;;;;5.63;4.28;;;;;;;16.32;44.24;101632.41;4966810;28;20046;-73
2023/09/27 06:32:35;;;;;;;5.60;4.38;;;;;;;16.37;44.63;101641.09;4985074;28;20556;-73
2023/09/27 06:35:12;;;;;;;5.88;4.63;;;;;;;16.37;44.61;101637.44;4988017;28;20050;-73
2023/09/27 06:37:40;;;;;;;6.32;4.10;;;;;;;16.39;44.51;101646.47;4988067;28;20132;-73
2023/09/27 06:40:09;;;;;;;5.43;4.05;;;;;;;16.42;44.51;101644.25;4968552;28;20140;-73
2023/09/27 06:42:38;;;;;;;6.43;4.18;;;;;;;16.42;44.12;101644.25;4983925;28;20062;-73
2023/09/27 06:45:07;;;;;;;6.30;4.15;;;;;;;16.45;44.61;101638.44;4986355;28;20042;-74
2023/09/27 06:47:38;;;;;;;6.47;4.38;;;;;;;16.49;44.53;101631.59;4986148;28;20062;-73
2023/09/27 06:50:08;;;;;;;5.85;4.55;;;;;;;16.49;44.50;101622.41;4988068;28;20077;-74
2023/09/27 06:52:37;;;;;;;6.63;4.72;;;;;;;16.49;44.42;101622.41;4968961;28;20058;-74
2023/09/27 06:55:10;;;;;;;7.10;5.13;;;;;;;16.50;44.48;101607.56;4967318;28;20200;-73
2023/09/27 06:57:38;;;;;;;6.88;4.20;;;;;;;16.46;44.67;101614.44;4967333;28;20136;-73
2023/09/27 07:00:12;;;;;;;7.55;4.95;;;;;;;16.48;44.14;101617.91;4984087;28;20883;-74
2023/09/27 07:02:43;;;;;;;5.80;4.20;;;;;;;16.48;44.75;101621.56;4985032;28;20060;-73
2023/09/27 07:05:12;;;;;;;7.72;4.72;;;;;;;16.45;44.50;101619.09;4983597;28;20053;-74
2023/09/27 07:07:40;;;;;;;5.78;4.95;;;;;;;16.45;44.72;101619.09;4984627;28;20052;-73
2023/09/27 07:10:09;;;;;;;5.72;4.28;;;;;;;16.46;44.53;101617.19;4986392;28;20139;-74
2023/09/27 07:12:37;;;;;;;5.95;4.82;;;;;;;16.45;44.42;101623.75;4967916;28;20485;-74
2023/09/27 07:15:09;;;;;;;7.07;4.53;;;;;;;16.46;44.48;101618.06;4964985;28;20089;-74
2023/09/27 07:17:38;;;;;;;5.53;4.38;;;;;;;16.46;44.54;101620.84;4983373;28;20046;-73
2023/09/27 07:20:17;;;;;;;7.32;4.18;;;;;;;16.49;44.79;101626.06;4984862;28;20045;-74
2023/09/27 07:22:45;;;;;;;6.97;4.38;;;;;;;16.48;44.90;101638.13;4966176;28;20148;-74
2023/09/27 07:25:16;;;;;;;5.38;4.32;;;;;;;16.50;45.17;101630.53;4986652;28;20458;-74
2023/09/27 07:27:46;;;;;;;5.15;3.92;;;;;;;16.53;44.84;101627.47;4984272;28;20595;-73
2023/09/27 07:30:18;;;;;;;5.88;4.25;;;;;;;16.57;45.58;101631.69;4986081;28;20562;-73
2023/09/27 07:32:46;;;;;;;6.13;4.35;;;;;;;16.58;45.70;101621.47;4966745;28;20074;-73
2023/09/27 07:35:17;;;;;;;7.15;4.47;;;;;;;16.66;45.57;101632.59;4986135;28;20052;-74
2023/09/27 07:37:45;;;;;;;6.75;4.93;;;;;;;16.69;45.45;101629.56;4983980;28;20109;-75
2023/09/27 07:40:15;;;;;;;6.57;4.70;;;;;;;16.75;45.68;101619.75;4987910;28;20713;-73
2023/09/27 07:42:45;;;;;;;5.90;4.15;;;;;;;16.81;45.67;101622.78;4962235;28;20050;-73
2023/09/27 07:45:20;;;;;;;5.82;4.65;;;;;;;16.87;45.02;101618.50;4968691;28;20513;-75
2023/09/27 07:47:50;;;;;;;6.40;4.57;;;;;;;16.90;45.00;101616.31;4985898;28;21037;-74
2023/09/27 07:50:20;;;;;;;5.93;4.60;;;;;;;16.96;45.15;101617.56;4967285;28;21568;-73
2023/09/27 07:52:48;;;;;;;7.13;4.55;;;;;;;16.99;44.94;101617.28;4987034;28;20853;-75
2023/09/27 07:55:17;;;;;;;6.10;4.13;;;;;;;17.05;45.75;101607.50;4966252;28;20068;-74
2023/09/27 07:57:45;;;;;;;5.47;4.13;;;;;;;17.10;45.45;101605.97;4982819;28;20066;-75
2023/09/27 08:00:18;;;;;;;4.82;3.90;;;;;;;17.18;45.23;101607.94;4986801;28;20076;-75
2023/09/27 08:02:48;;;;;;;5.95;4.20;;;;;;;17.26;45.39;101605.25;4967416;28;20254;-74
2023/09/27 08:05:16;;;;;;;5.47;4.32;;;;;;;17.33;45.63;101600.81;4965615;28;20073;-74
2023/09/27 08:07:46;;;;;;;6.22;4.40;;;;;;;17.43;45.16;101592.41;4982762;28;20537;-74
2023/09/27 08:10:15;;;;;;;5.30;3.92;;;;;;;17.50;45.31;101597.13;4984010;28;20108;-74
2023/09/27 08:12:49;;;;;;;5.05;4.00;;;;;;;17.58;44.69;101594.44;4982844;28;20557;-75
2023/09/27 08:15:18;;;;;;;5.38;4.13;;;;;;;17.65;44.61;101601.03;4982648;28;20041;-74
2023/09/27 08:17:47;;;;;;;5.45;4.35;;;;;;;17.73;44.77;101601.09;4966025;28;20452;-74
2023/09/27 08:20:15;;;;;;;6.22;4.30;;;;;;;17.81;44.16;101600.34;4967759;28;20046;-75
2023/09/27 08:22:43;;;;;;;5.93;4.00;;;;;;;17.89;44.17;101596.75;4984402;28;20046;-74
2023/09/27 08:25:15;;;;;;;4.65;3.80;;;;;;;17.96;44.68;101587.63;4985753;28;20049;-74
2023/09/27 08:27:44;;;;;;;5.35;3.88;;;;;;;18.00;44.48;101588.13;4980743;28;20621;-75
2023/09/27 08:30:13;;;;;;;4.18;3.40;;;;;;;18.10;44.48;101589.75;4982697;28;20077;-74
2023/09/27 08:32:41;;;;;;;6.85;3.53;;;;;;;18.18;44.12;101590.81;4965893;28;20050;-75
2023/09/27 08:35:10;;;;;;;5.25;3.63;;;;;;;18.25;44.22;101592.75;4986065;28;20385;-75
2023/09/27 08:37:39;;;;;;;5.07;3.67;;;;;;;18.31;43.90;101593.97;4984303;28;20056;-75
2023/09/27 08:40:12;;;;;;;5.18;3.85;;;;;;;18.39;43.63;101591.28;4984081;28;20070;-75
2023/09/27 08:42:43;;;;;;;5.38;3.60;;;;;;;18.45;43.72;101587.81;4964931;28;20061;-74
2023/09/27 08:45:13;;;;;;;4.57;3.20;;;;;;;18.50;43.44;101579.88;4986687;28;21165;-75
2023/09/27 08:47:43;;;;;;;4.30;3.40;;;;;;;18.53;43.22;101576.78;4984150;28;20128;-75
2023/09/27 08:50:13;;;;;;;5.43;3.78;;;;;;;18.56;43.53;101570.88;4987933;28;20097;-75
2023/09/27 08:52:46;;;;;;;4.47;3.45;;;;;;;18.61;43.35;101562.94;4989422;28;20559;-75
2023/09/27 08:55:14;;;;;;;4.22;3.25;;;;;;;18.59;43.32;101559.47;4989086;28;20446;-73
2023/09/27 08:57:46;;;;;;;5.07;3.15;;;;;;;18.68;43.25;101560.34;5012662;23;20492;-73
2023/09/27 09:00:16;;;;;;;4.43;3.00;;;;;;;18.67;43.59;101565.03;5005015;28;20547;-73
2023/09/27 09:02:47;;;;;;;4.07;2.90;;;;;;;18.75;43.79;101566.94;5005380;28;20060;-72
2023/09/27 09:05:17;;;;;;;5.25;3.20;;;;;;;18.79;43.53;101557.25;5005144;28;20064;-73
2023/09/27 09:07:46;;;;;;;5.03;3.47;;;;;;;18.84;43.44;101555.69;5004597;28;20056;-74
2023/09/27 09:10:15;;;;;;;5.90;3.85;;;;;;;18.93;43.46;101558.47;5009024;28;20151;-74
2023/09/27 09:12:47;;;;;;;5.85;3.53;;;;;;;19.00;43.50;101548.41;5005210;28;20058;-74
2023/09/27 09:15:28;;;;;;;4.75;3.40;;;;;;;19.08;43.32;101545.66;5005604;28;20107;-74
2023/09/27 09:17:58;;;;;;;6.75;3.97;;;;;;;19.12;43.27;101542.38;5005295;28;21004;-74
2023/09/27 09:20:32;;;;;;;6.38;3.63;;;;;;;19.23;43.35;101543.94;5006903;28;20519;-74
2023/09/27 09:23:04;;;;;;;6.28;3.50;;;;;;;19.33;43.48;101539.06;5005930;28;20587;-74
2023/09/27 09:25:43;;;;;;;5.00;3.80;;;;;;;19.47;42.58;101530.03;5005676;28;20107;-74
2023/09/27 09:28:14;;;;;;;5.60;3.53;;;;;;;19.54;43.23;101530.22;5005159;28;20060;-73
2023/09/27 09:30:44;;;;;;;5.40;3.92;;;;;;;19.61;43.13;101529.31;5004537;28;20046;-73
2023/09/27 09:33:18;;;;;;;4.95;3.50;;;;;;;19.73;42.90;101528.91;5005741;28;20188;-74
2023/09/27 09:35:46;;;;;;;5.28;3.75;;;;;;;19.80;42.68;101538.25;5003947;28;20061;-74
2023/09/27 09:38:24;;;;;;;5.15;3.53;;;;;;;19.90;41.86;101537.03;5005683;28;20046;-74
2023/09/27 09:40:54;;;;;;;5.43;3.20;;;;;;;19.97;42.16;101545.53;5006899;28;20050;-74
2023/09/27 09:43:34;;;;;;;4.18;3.22;;;;;;;20.08;41.75;101536.81;5008108;28;20053;-76
2023/09/27 09:46:06;;;;;;;4.70;3.00;;;;;;;20.13;42.11;101536.25;5006815;28;20158;-74
2023/09/27 09:48:35;;;;;;;5.05;3.10;;;;;;;20.19;42.07;101538.34;5006691;28;20444;-74
2023/09/27 09:51:06;;;;;;;4.43;2.97;;;;;;;20.28;41.87;101526.97;5008710;28;20560;-74
2023/09/27 09:53:39;;;;;;;4.32;2.90;;;;;;;20.38;41.40;101527.59;5008200;28;20049;-73
2023/09/27 09:56:09;;;;;;;4.95;2.88;;;;;;;20.44;41.51;101536.28;5007206;28;20056;-73
2023/09/27 09:58:47;;;;;;;4.47;2.80;;;;;;;20.53;41.01;101532.41;5007836;28;20116;-74
2023/09/27 10:01:21;;;;;;;4.60;3.05;;;;;;;20.62;40.65;101529.41;5006843;28;20061;-73
2023/09/27 10:03:52;;;;;;;4.60;3.38;;;;;;;20.67;40.51;101523.31;5009134;28;20835;-74
2023/09/27 10:06:21;;;;;;;4.57;2.92;;;;;;;20.73;40.82;101522.56;5006213;28;20288;-74
2023/09/27 10:09:13;;;;;;;5.03;3.30;;;;;;;20.80;40.23;101526.31;5007942;28;20457;-75
2023/09/27 10:11:45;;;;;;;4.00;2.80;;;;;;;20.86;40.87;101519.16;5007702;28;20042;-74
2023/09/27 10:14:19;;;;;;;3.97;2.70;;;;;;;20.95;40.47;101521.69;5007713;28;20516;-74
2023/09/27 10:16:50;;;;;;;5.00;2.80;;;;;;;21.04;41.00;101523.34;5006584;28;20197;-74
2023/09/27 10:19:28;;;;;;;4.65;2.92;;;;;;;21.15;40.14;101531.25;5005182;28;20163;-74
2023/09/27 10:22:05;;;;;;;4.15;3.03;;;;;;;21.25;40.47;101535.69;5004023;28;20049;-74
2023/09/27 10:24:35;;;;;;;4.78;3.08;;;;;;;21.34;40.73;101534.59;5003705;28;20344;-75
2023/09/27 10:27:03;;;;;;;3.70;2.58;;;;;;;21.45;40.72;101539.69;5003670;28;20053;-74
2023/09/27 10:29:34;;;;;;;4.95;2.95;;;;;;;21.57;40.67;101535.41;5007348;28;20053;-75
2023/09/27 10:32:19;;;;;;;4.35;2.80;;;;;;;21.68;39.80;101546.09;5005460;28;20053;-74
2023/09/27 10:34:51;;;;;;;3.53;2.40;;;;;;;21.79;40.34;101544.72;5005870;28;20585;-75
2023/09/27 10:37:58;;;;;;;3.72;2.53;;;;;;;21.90;39.41;101541.47;5006269;28;20054;-74
2023/09/27 10:40:26;;;;;;;3.35;2.30;;;;;;;22.00;39.72;101527.28;5002032;28;20512;-75
2023/09/27 10:42:55;;;;;;;4.13;2.45;;;;;;;22.12;39.55;101525.72;5008354;28;20072;-74
2023/09/27 10:45:25;;;;;;;3.47;2.50;;;;;;;22.24;39.41;101530.59;5005079;28;20054;-74
2023/09/27 10:47:54;;;;;;;4.20;2.88;;;;;;;22.33;39.14;101516.56;5007299;28;20053;-74
2023/09/27 10:50:28;;;;;;;4.05;2.42;;;;;;;22.44;38.42;101511.31;5003143;28;20065;-74
2023/09/27 10:52:59;;;;;;;4.38;2.80;;;;;;;22.50;38.64;101507.75;5005275;28;20041;-74
2023/09/27 10:55:37;;;;;;;4.15;2.97;;;;;;;22.61;37.91;101509.16;5005528;28;20054;-74
2023/09/27 10:58:06;;;;;;;4.72;3.10;;;;;;;22.64;38.57;101492.03;5004017;28;20469;-74
2023/09/27 11:00:35;;;;;;;4.53;3.00;;;;;;;22.72;38.05;101496.63;5004452;28;20161;-73
2023/09/27 11:03:17;;;;;;;3.78;2.50;;;;;;;22.79;37.29;101497.56;5004715;28;20053;-74
2023/09/27 11:05:45;;;;;;;2.97;2.45;;;;;;;22.79;38.05;101494.75;5003061;28;20056;-73
2023/09/27 11:08:21;;;;;;;4.38;2.33;;;;;;;22.91;37.13;101487.59;5004335;28;20084;-73
2023/09/27 11:10:52;;;;;;;3.75;2.70;;;;;;;22.92;37.32;101483.75;5005302;28;20068;-74
2023/09/27 11:13:21;;;;;;;3.40;2.47;;;;;;;22.99;37.51;101482.75;5005088;28;20050;-73
2023/09/27 11:15:51;;;;;;;4.68;2.50;;;;;;;23.05;37.16;101477.41;5003586;28;20413;-74
2023/09/27 11:18:19;;;;;;;3.67;2.30;;;;;;;23.07;37.03;101478.06;5005373;28;20067;-74
2023/09/27 11:20:48;;;;;;;4.75;2.58;;;;;;;23.11;36.63;101476.59;5028200;28;20049;-74
2023/09/27 11:23:16;;;;;;;3.22;2.38;;;;;;;23.12;36.59;101462.44;5003461;28;20061;-74
2023/09/27 11:25:44;;;;;;;4.15;2.60;;;;;;;23.15;36.26;101455.59;5002187;28;20060;-74
2023/09/27 11:28:15;;;;;;;3.78;2.10;;;;;;;23.18;36.33;101444.03;5005569;28;20100;-74
2023/09/27 11:30:43;;;;;;;3.25;2.28;;;;;;;23.16;36.17;101441.47;5004264;28;20049;-74
2023/09/27 11:33:16;;;;;;;3.38;2.47;;;;;;;23.19;35.99;101438.25;5006310;28;20056;-74
2023/09/27 11:35:49;;;;;;;3.80;2.35;;;;;;;23.18;35.80;101441.22;5003534;28;20049;-75
2023/09/27 11:38:17;;;;;;;;;;;;;;;22.86;36.87;101437.94;5003996;28;20042;-74